createdAt,value
2017-10-17T00:02:03.325Z,12.90
2017-10-17T00:04:29.801Z,12.07
2017-10-17T00:06:57.007Z,13.13
2017-10-17T00:09:23.492Z,12.43
2017-10-17T00:11:50.696Z,11.60
2017-10-17T00:14:17.197Z,12.90
2017-10-17T00:16:43.632Z,12.30
2017-10-17T00:19:10.089Z,12.20
2017-10-17T00:21:36.525Z,12.73
2017-10-17T00:24:03.012Z,12.40
2017-10-17T00:26:30.201Z,13.17
2017-10-17T00:28:56.669Z,13.20
2017-10-17T00:31:23.149Z,12.53
2017-10-17T00:33:49.637Z,13.90
2017-10-17T00:36:17.069Z,12.20
2017-10-17T00:38:43.483Z,13.33
2017-10-17T00:41:09.944Z,12.83
2017-10-17T00:43:36.392Z,12.10
2017-10-17T00:46:03.672Z,13.20
2017-10-17T00:48:30.956Z,11.93
2017-10-17T00:50:58.377Z,13.27
2017-10-17T00:53:25.544Z,12.40
2017-10-17T00:55:52.807Z,12.50
2017-10-17T00:58:19.244Z,12.10
2017-10-17T01:00:45.680Z,12.40
2017-10-17T01:03:12.179Z,13.07
2017-10-17T01:05:38.745Z,12.37
2017-10-17T01:08:05.196Z,11.90
2017-10-17T01:10:31.687Z,13.07
2017-10-17T01:12:58.120Z,12.27
2017-10-17T01:15:24.660Z,11.63
2017-10-17T01:17:51.867Z,13.17
2017-10-17T01:20:19.185Z,12.47
2017-10-17T01:22:45.643Z,12.40
2017-10-17T01:25:12.149Z,13.53
2017-10-17T01:27:39.351Z,13.30
2017-10-17T01:30:05.797Z,11.80
2017-10-17T01:32:32.266Z,12.30
2017-10-17T01:34:59.492Z,12.60
2017-10-17T01:37:25.931Z,11.60
2017-10-17T01:40:00.980Z,12.17
2017-10-17T01:42:29.186Z,12.80
2017-10-17T01:44:57.364Z,12.17
2017-10-17T01:47:26.800Z,11.63
2017-10-17T01:49:53.272Z,13.20
2017-10-17T01:52:21.669Z,11.90
2017-10-17T01:54:54.044Z,12.23
2017-10-17T01:57:20.629Z,11.63
2017-10-17T02:00:03.979Z,11.80
2017-10-17T02:02:31.183Z,13.30
2017-10-17T02:05:00.576Z,11.30
2017-10-17T02:07:27.056Z,12.17
2017-10-17T02:09:55.119Z,10.53
2017-10-17T02:12:21.559Z,11.73
2017-10-17T02:14:48.824Z,10.97
2017-10-17T02:17:16.016Z,10.73
2017-10-17T02:19:42.486Z,11.20
2017-10-17T02:22:11.882Z,11.97
2017-10-17T02:24:40.256Z,10.40
2017-10-17T02:27:06.822Z,13.10
2017-10-17T02:29:35.834Z,12.87
2017-10-17T02:32:03.150Z,11.03
2017-10-17T02:34:31.075Z,12.27
2017-10-17T02:36:57.524Z,11.97
2017-10-17T02:39:24.017Z,12.63
2017-10-17T02:41:50.452Z,10.70
2017-10-17T02:44:16.979Z,12.43
2017-10-17T02:46:44.411Z,11.70
2017-10-17T02:49:10.889Z,11.13
2017-10-17T02:51:37.340Z,11.37
2017-10-17T02:54:03.851Z,10.60
2017-10-17T02:56:30.278Z,11.30
2017-10-17T02:58:56.780Z,11.17
2017-10-17T03:01:34.157Z,10.03
2017-10-17T03:04:00.642Z,11.27
2017-10-17T03:06:27.137Z,11.60
2017-10-17T03:08:53.587Z,10.97
2017-10-17T03:11:20.871Z,11.20
2017-10-17T03:13:49.433Z,11.33
2017-10-17T03:16:16.211Z,11.13
2017-10-17T03:18:42.677Z,9.57
2017-10-17T03:21:19.992Z,13.83
2017-10-17T03:23:48.176Z,10.60
2017-10-17T03:26:14.626Z,10.00
2017-10-17T03:28:41.977Z,10.10
2017-10-17T03:31:12.331Z,10.27
2017-10-17T03:33:38.815Z,11.00
2017-10-17T03:39:11.739Z,11.73
2017-10-17T03:41:38.876Z,11.47
2017-10-17T03:47:03.484Z,10.40
2017-10-17T03:52:33.751Z,10.47
2017-10-17T03:55:00.327Z,12.53
2017-10-17T03:57:26.784Z,11.47
2017-10-17T03:59:55.365Z,11.90
2017-10-17T04:02:21.852Z,10.70
2017-10-17T04:04:49.235Z,12.43
2017-10-17T04:07:22.771Z,12.47
2017-10-17T04:10:01.240Z,11.23
2017-10-17T04:12:29.015Z,12.30
2017-10-17T04:14:55.468Z,11.37
2017-10-17T04:17:51.832Z,11.37
2017-10-17T04:20:30.044Z,11.67
2017-10-17T04:23:12.341Z,10.97
2017-10-17T04:25:41.477Z,12.37
2017-10-17T04:28:25.676Z,13.10
2017-10-17T04:30:57.576Z,12.23
2017-10-17T04:33:35.028Z,11.87
2017-10-17T04:36:12.112Z,13.70
2017-10-17T04:38:39.295Z,12.30
2017-10-17T04:41:09.681Z,12.60
2017-10-17T04:46:41.096Z,12.07
2017-10-17T04:49:09.336Z,11.40
2017-10-17T04:51:43.328Z,12.60
2017-10-17T04:54:33.532Z,10.70
2017-10-17T04:57:00.828Z,12.50
2017-10-17T05:02:26.326Z,11.03
2017-10-17T05:04:55.672Z,9.90
2017-10-17T05:07:23.160Z,12.20
2017-10-17T05:09:51.519Z,11.47
2017-10-17T05:12:18.872Z,11.03
2017-10-17T05:14:45.341Z,12.13
2017-10-17T05:17:34.380Z,12.23
2017-10-17T05:20:20.184Z,12.87
2017-10-17T05:22:59.336Z,11.20
2017-10-17T05:25:29.510Z,10.40
2017-10-17T05:28:03.890Z,11.10
2017-10-17T05:30:31.171Z,10.93
2017-10-17T05:35:56.629Z,11.00
2017-10-17T05:38:23.072Z,11.67
2017-10-17T05:40:50.376Z,12.50
2017-10-17T05:46:07.176Z,12.20
2017-10-17T05:48:33.645Z,11.30
2017-10-17T05:51:01.046Z,11.13
2017-10-17T05:53:28.277Z,11.17
2017-10-17T05:55:54.705Z,11.93
2017-10-17T05:58:21.179Z,10.80
2017-10-17T06:00:47.635Z,11.93
2017-10-17T06:03:14.065Z,10.53
2017-10-17T06:05:40.527Z,12.43
2017-10-17T06:08:06.980Z,10.50
2017-10-17T06:10:33.392Z,11.60
2017-10-17T06:13:00.565Z,12.50
2017-10-17T06:15:27.714Z,11.90
2017-10-17T06:17:54.110Z,12.73
2017-10-17T06:20:20.567Z,11.20
2017-10-17T06:22:47.005Z,12.30
2017-10-17T06:25:13.457Z,13.67
2017-10-17T06:27:40.628Z,16.93
2017-10-17T06:30:07.044Z,18.90
2017-10-17T06:32:34.184Z,17.27
2017-10-17T06:35:00.628Z,18.10
2017-10-17T06:37:27.784Z,16.17
2017-10-17T06:39:54.224Z,15.43
2017-10-17T06:42:20.800Z,14.90
2017-10-17T06:44:48.074Z,14.13
2017-10-17T06:47:14.536Z,14.30
2017-10-17T06:49:41.750Z,14.50
2017-10-17T06:52:08.945Z,13.87
2017-10-17T06:54:36.157Z,14.20
2017-10-17T06:57:02.634Z,14.47
2017-10-17T06:59:29.064Z,11.73
2017-10-17T07:01:56.246Z,11.23
2017-10-17T07:04:23.648Z,13.27
2017-10-17T07:06:50.137Z,12.80
2017-10-17T07:09:16.664Z,12.40
2017-10-17T07:11:43.138Z,11.60
2017-10-17T07:14:09.574Z,12.30
2017-10-17T07:16:36.049Z,12.00
2017-10-17T07:19:02.495Z,11.83
2017-10-17T07:21:45.720Z,11.33
2017-10-17T07:24:12.420Z,13.30
2017-10-17T07:26:49.362Z,13.57
2017-10-17T07:29:26.786Z,13.13
2017-10-17T07:31:53.985Z,13.53
2017-10-17T07:34:21.626Z,13.47
2017-10-17T07:36:48.193Z,13.57
2017-10-17T07:39:14.649Z,14.97
2017-10-17T07:41:41.417Z,15.53
2017-10-17T07:44:08.768Z,15.53
2017-10-17T07:46:36.508Z,15.20
2017-10-17T07:49:04.660Z,14.03
2017-10-17T07:51:31.265Z,14.83
2017-10-17T07:53:58.739Z,13.17
2017-10-17T07:56:25.469Z,15.33
2017-10-17T07:58:52.785Z,14.03
2017-10-17T08:01:20.252Z,13.37
2017-10-17T08:03:47.604Z,14.10
2017-10-17T08:06:16.642Z,13.20
2017-10-17T08:08:44.242Z,12.03
2017-10-17T08:11:11.637Z,13.07
2017-10-17T08:13:38.846Z,12.33
2017-10-17T08:16:05.296Z,12.30
2017-10-17T08:18:32.503Z,11.97
2017-10-17T08:20:58.902Z,12.47
2017-10-17T08:23:26.023Z,12.10
2017-10-17T08:25:52.508Z,11.70
2017-10-17T08:28:18.969Z,12.80
2017-10-17T08:30:46.165Z,11.90
2017-10-17T08:33:13.300Z,12.60
2017-10-17T08:35:39.733Z,11.40
2017-10-17T08:38:06.196Z,11.60
2017-10-17T08:40:32.651Z,11.77
2017-10-17T08:42:59.504Z,11.57
2017-10-17T08:45:26.807Z,10.20
2017-10-17T08:47:54.065Z,11.57
2017-10-17T08:50:21.248Z,11.87
2017-10-17T08:52:47.731Z,12.80
2017-10-17T08:55:14.941Z,11.07
2017-10-17T08:57:41.408Z,10.17
2017-10-17T09:00:07.822Z,12.20
2017-10-17T09:02:34.269Z,12.73
2017-10-17T09:05:00.701Z,13.43
2017-10-17T09:07:27.124Z,10.97
2017-10-17T09:09:54.287Z,11.07
2017-10-17T09:12:20.719Z,11.57
2017-10-17T09:14:47.360Z,11.53
2017-10-17T09:17:13.779Z,11.97
2017-10-17T09:19:40.232Z,11.50
2017-10-17T09:22:07.445Z,11.33
2017-10-17T09:24:33.844Z,11.20
2017-10-17T09:27:00.988Z,11.07
2017-10-17T09:29:28.149Z,11.60
2017-10-17T09:31:56.180Z,11.10
2017-10-17T09:34:23.203Z,10.53
2017-10-17T09:36:50.687Z,11.23
2017-10-17T09:39:21.363Z,12.00
2017-10-17T09:41:48.789Z,11.20
2017-10-17T09:44:15.241Z,11.50
2017-10-17T09:46:42.038Z,10.93
2017-10-17T09:49:10.093Z,10.40
2017-10-17T09:51:37.661Z,11.43
2017-10-17T09:54:09.617Z,11.30
2017-10-17T09:59:11.569Z,10.50
2017-10-17T10:01:39.490Z,10.70
2017-10-17T10:04:09.672Z,11.50
2017-10-17T10:06:39.080Z,10.80
2017-10-17T10:09:06.603Z,10.60
2017-10-17T10:11:36.045Z,11.00
2017-10-17T10:14:02.485Z,11.63
2017-10-17T10:16:30.199Z,12.50
2017-10-17T10:18:57.708Z,11.03
2017-10-17T10:21:25.192Z,10.80
2017-10-17T10:23:51.721Z,11.50
2017-10-17T10:26:18.208Z,12.60
2017-10-17T10:28:44.779Z,12.07
2017-10-17T10:31:12.365Z,11.07
2017-10-17T10:33:38.920Z,14.90
2017-10-17T10:36:05.468Z,14.10
2017-10-17T10:38:32.733Z,12.30
2017-10-17T10:41:00.423Z,14.33
2017-10-17T10:43:27.011Z,11.27
2017-10-17T10:45:53.721Z,11.90
2017-10-17T10:48:20.321Z,11.77
2017-10-17T10:50:46.941Z,12.50
2017-10-17T10:53:13.696Z,11.33
2017-10-17T10:55:41.100Z,11.20
2017-10-17T10:58:07.671Z,11.33
2017-10-17T11:00:34.262Z,10.50
2017-10-17T11:03:01.035Z,12.20
2017-10-17T11:05:27.605Z,12.70
2017-10-17T11:07:54.020Z,9.90
2017-10-17T11:10:20.815Z,12.97
2017-10-17T11:12:47.345Z,10.80
2017-10-17T11:15:14.006Z,9.40
2017-10-17T11:17:41.245Z,10.50
2017-10-17T11:20:07.821Z,10.50
2017-10-17T11:22:34.417Z,9.80
2017-10-17T11:25:01.054Z,9.87
2017-10-17T11:27:27.634Z,11.50
2017-10-17T11:29:54.333Z,9.53
2017-10-17T11:32:20.810Z,10.23
2017-10-17T11:34:47.597Z,9.90
2017-10-17T11:37:14.281Z,10.50
2017-10-17T11:39:40.788Z,10.13
2017-10-17T11:42:19.694Z,11.53
2017-10-17T11:44:46.276Z,9.57
2017-10-17T11:47:14.306Z,10.03
2017-10-17T11:49:40.904Z,9.67
2017-10-17T11:52:07.437Z,9.87
2017-10-17T11:54:33.892Z,9.33
2017-10-17T11:57:00.316Z,9.70
2017-10-17T11:59:26.765Z,10.20
2017-10-17T12:01:53.221Z,9.60
2017-10-17T12:04:19.699Z,9.27
2017-10-17T12:06:46.220Z,9.20
2017-10-17T12:09:12.654Z,8.80
2017-10-17T12:11:39.121Z,7.93
2017-10-17T12:14:05.585Z,9.17
2017-10-17T12:16:32.032Z,8.07
2017-10-17T12:18:59.164Z,10.33
2017-10-17T12:21:25.593Z,9.93
2017-10-17T12:23:52.103Z,8.30
2017-10-17T12:26:18.524Z,8.90
2017-10-17T12:28:44.998Z,7.83
2017-10-17T12:31:11.466Z,8.50
2017-10-17T12:33:37.944Z,7.57
2017-10-17T12:36:04.352Z,9.33
2017-10-17T12:38:30.793Z,7.80
2017-10-17T12:40:57.215Z,8.13
2017-10-17T12:43:23.620Z,8.50
2017-10-17T12:45:50.811Z,7.23
2017-10-17T12:48:17.253Z,7.50
2017-10-17T12:50:43.651Z,7.67
2017-10-17T12:53:10.852Z,7.57
2017-10-17T12:55:37.316Z,7.43
2017-10-17T12:58:04.534Z,8.57
2017-10-17T13:00:31.012Z,7.47
2017-10-17T13:02:58.148Z,7.47
2017-10-17T13:05:25.364Z,7.40
2017-10-17T13:07:51.821Z,8.30
2017-10-17T13:10:18.264Z,7.10
2017-10-17T13:12:44.736Z,6.60
2017-10-17T13:15:11.192Z,7.40
2017-10-17T13:17:37.676Z,6.10
2017-10-17T13:20:04.868Z,7.13
2017-10-17T13:22:31.344Z,7.17
2017-10-17T13:24:57.832Z,6.40
2017-10-17T13:27:24.272Z,6.17
2017-10-17T13:29:50.709Z,6.73
2017-10-17T13:32:17.165Z,6.90
2017-10-17T13:34:44.340Z,5.50
2017-10-17T13:37:11.529Z,6.60
2017-10-17T13:39:37.980Z,6.80
2017-10-17T13:42:04.433Z,6.47
2017-10-17T13:44:31.582Z,7.13
2017-10-17T13:46:58.045Z,6.03
2017-10-17T13:49:25.197Z,6.43
2017-10-17T13:51:52.356Z,6.27
2017-10-17T13:54:19.529Z,6.47
2017-10-17T13:56:45.971Z,7.03
2017-10-17T13:59:12.375Z,5.87
2017-10-17T14:01:38.799Z,6.47
2017-10-17T14:04:05.993Z,6.40
2017-10-17T14:06:32.468Z,5.80
2017-10-17T14:08:58.892Z,6.20
2017-10-17T14:11:26.116Z,5.30
2017-10-17T14:13:52.640Z,5.30
2017-10-17T14:16:19.095Z,7.00
2017-10-17T14:18:45.560Z,5.90
2017-10-17T14:21:11.993Z,5.83
2017-10-17T14:23:38.415Z,5.57
2017-10-17T14:26:04.861Z,5.70
2017-10-17T14:28:32.060Z,6.00
2017-10-17T14:30:58.488Z,6.10
2017-10-17T14:33:24.909Z,7.27
2017-10-17T14:35:51.345Z,6.70
2017-10-17T14:38:17.787Z,6.00
2017-10-17T14:40:44.239Z,5.70
2017-10-17T14:43:10.809Z,6.70
2017-10-17T14:45:37.228Z,6.00
2017-10-17T14:48:03.700Z,7.07
2017-10-17T14:50:30.155Z,6.30
2017-10-17T14:52:56.585Z,6.00
2017-10-17T14:55:23.039Z,6.30
2017-10-17T14:57:49.484Z,6.37
2017-10-17T15:00:15.921Z,6.00
2017-10-17T15:02:43.095Z,6.97
2017-10-17T15:05:10.253Z,6.60
2017-10-17T15:07:37.440Z,6.63
2017-10-17T15:10:05.396Z,6.30
2017-10-17T15:12:31.857Z,6.37
2017-10-17T15:14:58.342Z,5.73
2017-10-17T15:17:25.494Z,6.40
2017-10-17T15:19:52.658Z,6.77
2017-10-17T15:22:19.060Z,5.83
2017-10-17T15:24:46.257Z,6.30
2017-10-17T15:27:12.647Z,6.40
2017-10-17T15:29:39.105Z,5.77
2017-10-17T15:32:05.575Z,6.17
2017-10-17T15:34:31.994Z,5.80
2017-10-17T15:36:58.440Z,6.40
2017-10-17T15:39:24.841Z,7.37
2017-10-17T15:41:51.260Z,6.50
2017-10-17T15:44:18.427Z,6.60
2017-10-17T15:46:44.833Z,6.10
2017-10-17T15:49:11.292Z,6.20
2017-10-17T15:51:37.715Z,6.60
2017-10-17T15:54:04.165Z,7.73
2017-10-17T15:56:30.641Z,6.60
2017-10-17T15:58:57.142Z,7.83
2017-10-17T16:01:23.572Z,6.57
2017-10-17T16:03:49.977Z,7.30
2017-10-17T16:06:17.164Z,7.03
2017-10-17T16:08:43.584Z,7.67
2017-10-17T16:11:10.044Z,7.03
2017-10-17T16:13:36.493Z,8.93
2017-10-17T16:16:02.928Z,8.17
2017-10-17T16:18:29.369Z,8.20
2017-10-17T16:20:55.772Z,8.30
2017-10-17T16:23:22.239Z,8.30
2017-10-17T16:25:48.635Z,8.23
2017-10-17T16:28:15.065Z,8.57
2017-10-17T16:30:41.504Z,9.30
2017-10-17T16:33:07.954Z,9.37
2017-10-17T16:35:34.402Z,10.47
2017-10-17T16:38:00.866Z,8.60
2017-10-17T16:40:27.293Z,9.20
2017-10-17T16:42:54.477Z,10.20
2017-10-17T16:45:21.255Z,8.87
2017-10-17T16:47:47.767Z,9.37
2017-10-17T16:50:14.204Z,9.67
2017-10-17T16:52:41.379Z,8.63
2017-10-17T16:55:08.578Z,9.10
2017-10-17T16:57:35.061Z,8.93
2017-10-17T17:00:01.533Z,9.13
2017-10-17T17:02:27.940Z,8.83
2017-10-17T17:04:55.123Z,10.40
2017-10-17T17:07:21.517Z,11.60
2017-10-17T17:09:47.969Z,13.67
2017-10-17T17:12:15.131Z,14.37
2017-10-17T17:14:41.557Z,15.30
2017-10-17T17:17:08.752Z,15.17
2017-10-17T17:19:35.171Z,14.83
2017-10-17T17:22:01.713Z,15.20
2017-10-17T17:24:28.169Z,16.70
2017-10-17T17:26:54.664Z,15.53
2017-10-17T17:29:21.165Z,15.13
2017-10-17T17:31:48.294Z,16.17
2017-10-17T17:34:14.720Z,13.90
2017-10-17T17:36:41.132Z,13.30
2017-10-17T17:39:07.571Z,15.17
2017-10-17T17:41:34.748Z,12.67
2017-10-17T17:44:01.213Z,12.83
2017-10-17T17:46:27.657Z,13.00
2017-10-17T17:48:54.182Z,12.37
2017-10-17T17:51:21.356Z,10.13
2017-10-17T17:53:47.794Z,12.53
2017-10-17T17:56:14.244Z,10.83
2017-10-17T17:58:40.678Z,12.03
2017-10-17T18:01:07.149Z,12.47
2017-10-17T18:03:34.296Z,11.70
2017-10-17T18:06:00.761Z,11.50
2017-10-17T18:08:27.147Z,12.23
2017-10-17T18:10:53.541Z,12.00
2017-10-17T18:13:19.976Z,11.80
2017-10-17T18:15:46.408Z,12.30
2017-10-17T18:18:12.792Z,11.23
2017-10-17T18:20:39.991Z,11.50
2017-10-17T18:23:06.424Z,12.00
2017-10-17T18:25:32.852Z,9.83
2017-10-17T18:27:59.251Z,11.17
2017-10-17T18:30:26.417Z,11.63
2017-10-17T18:32:52.888Z,13.00
2017-10-17T18:35:19.308Z,12.60
2017-10-17T18:37:45.753Z,14.23
2017-10-17T18:40:12.147Z,13.00
2017-10-17T18:42:38.584Z,12.83
2017-10-17T18:45:05.024Z,13.40
2017-10-17T18:47:32.304Z,12.90
2017-10-17T18:49:58.700Z,15.27
2017-10-17T18:52:25.125Z,12.47
2017-10-17T18:54:52.287Z,12.63
2017-10-17T18:57:18.716Z,13.60
2017-10-17T18:59:45.140Z,13.13
2017-10-17T19:02:12.321Z,13.07
2017-10-17T19:04:39.503Z,13.03
2017-10-17T19:07:05.941Z,13.03
2017-10-17T19:09:32.324Z,14.07
2017-10-17T19:11:58.703Z,14.00
2017-10-17T19:14:25.131Z,13.90
2017-10-17T19:16:51.533Z,13.70
2017-10-17T19:19:17.953Z,14.20
2017-10-17T19:21:44.353Z,14.77
2017-10-17T19:24:11.548Z,12.17
2017-10-17T19:26:37.967Z,12.50
2017-10-17T19:29:04.359Z,12.00
2017-10-17T19:31:30.812Z,10.83
2017-10-17T19:33:57.223Z,12.03
2017-10-17T19:36:23.659Z,11.90
2017-10-17T19:38:50.864Z,13.70
2017-10-17T19:41:17.311Z,13.00
2017-10-17T19:43:43.764Z,13.07
2017-10-17T19:46:10.199Z,13.10
2017-10-17T19:48:36.629Z,12.60
2017-10-17T19:51:03.080Z,12.00
2017-10-17T19:53:29.504Z,12.33
2017-10-17T19:55:55.937Z,11.40
2017-10-17T19:58:22.401Z,11.70
2017-10-17T20:00:48.844Z,12.17
2017-10-17T20:03:15.264Z,12.53
2017-10-17T20:05:42.453Z,12.37
2017-10-17T20:08:08.989Z,14.47
2017-10-17T20:10:35.461Z,12.83
2017-10-17T20:13:01.925Z,14.70
2017-10-17T20:15:28.412Z,13.40
2017-10-17T20:17:54.824Z,12.97
2017-10-17T20:20:21.281Z,12.00
2017-10-17T20:22:47.777Z,11.27
2017-10-17T20:25:14.258Z,11.90
2017-10-17T20:27:40.707Z,13.97
2017-10-17T20:30:07.921Z,11.50
2017-10-17T20:32:34.439Z,12.70
2017-10-17T20:35:01.744Z,11.80
2017-10-17T20:37:28.972Z,13.20
2017-10-17T20:39:55.451Z,13.07
2017-10-17T20:42:21.915Z,13.67
2017-10-17T20:44:48.412Z,11.37
2017-10-17T20:47:15.616Z,12.40
2017-10-17T20:49:42.035Z,11.63
2017-10-17T20:52:08.497Z,12.40
2017-10-17T20:54:34.952Z,13.90
2017-10-17T20:57:02.163Z,12.27
2017-10-17T20:59:28.568Z,12.70
2017-10-17T21:01:54.997Z,12.33
2017-10-17T21:04:21.459Z,12.73
2017-10-17T21:06:47.881Z,12.67
2017-10-17T21:09:14.344Z,13.03
2017-10-17T21:11:40.785Z,11.50
2017-10-17T21:14:07.240Z,12.30
2017-10-17T21:16:34.368Z,13.30
2017-10-17T21:19:00.763Z,13.70
2017-10-17T21:21:27.199Z,11.80
2017-10-17T21:23:53.600Z,13.53
2017-10-17T21:26:20.079Z,13.27
2017-10-17T21:28:46.488Z,13.93
2017-10-17T21:31:12.939Z,13.40
2017-10-17T21:33:39.408Z,13.50
2017-10-17T21:36:05.825Z,12.37
2017-10-17T21:38:32.260Z,12.13
2017-10-17T21:40:58.708Z,13.30
2017-10-17T21:43:25.885Z,12.73
2017-10-17T21:45:52.324Z,12.90
2017-10-17T21:48:18.743Z,13.63
2017-10-17T21:50:45.869Z,12.70
2017-10-17T21:53:12.256Z,14.47
2017-10-17T21:55:38.702Z,14.60
2017-10-17T21:58:05.093Z,14.20
2017-10-17T22:00:44.507Z,14.47
2017-10-17T22:03:10.917Z,13.57
2017-10-17T22:05:37.343Z,13.30
2017-10-17T22:08:03.828Z,14.40
2017-10-17T22:10:30.983Z,14.37
2017-10-17T22:12:57.384Z,14.40
2017-10-17T22:15:23.838Z,15.00
2017-10-17T22:17:51.020Z,14.37
2017-10-17T22:20:17.417Z,13.50
2017-10-17T22:22:44.576Z,14.20
2017-10-17T22:25:11.827Z,13.73
2017-10-17T22:27:38.947Z,14.50
2017-10-17T22:30:05.340Z,14.10
2017-10-17T22:32:31.822Z,14.33
2017-10-17T22:34:58.281Z,13.40
2017-10-17T22:37:25.455Z,15.20
2017-10-17T22:39:51.873Z,14.83
2017-10-17T22:42:18.272Z,15.83
2017-10-17T22:44:44.737Z,15.20
2017-10-17T22:47:11.132Z,14.83
2017-10-17T22:49:37.552Z,15.30
2017-10-17T22:52:03.985Z,13.80
2017-10-17T22:54:31.184Z,14.43
2017-10-17T22:56:57.604Z,15.00
2017-10-17T22:59:24.787Z,12.40
2017-10-17T23:01:51.205Z,14.23
2017-10-17T23:04:17.629Z,15.40
2017-10-17T23:06:44.109Z,13.80
2017-10-17T23:09:10.520Z,15.00
2017-10-17T23:11:36.936Z,14.30
2017-10-17T23:14:03.349Z,16.90
2017-10-17T23:16:29.816Z,15.40
2017-10-17T23:19:08.504Z,15.70
2017-10-17T23:21:35.760Z,15.37
2017-10-17T23:24:02.949Z,15.40
2017-10-17T23:26:30.132Z,16.33
2017-10-17T23:28:56.522Z,16.10
2017-10-17T23:31:22.921Z,14.83
2017-10-17T23:33:50.097Z,16.37
2017-10-17T23:36:16.500Z,17.03
2017-10-17T23:38:43.628Z,15.30
2017-10-17T23:41:10.036Z,14.93
2017-10-17T23:43:36.424Z,16.67
2017-10-17T23:46:03.616Z,16.83
2017-10-17T23:48:30.022Z,17.00
2017-10-17T23:50:56.409Z,15.30
2017-10-17T23:53:22.837Z,17.40
2017-10-17T23:55:49.235Z,16.70
2017-10-17T23:58:15.633Z,17.33
